createdAt,value
2018-05-23T00:02:14.680Z,41.30
2018-05-23T00:04:42.194Z,41.40
2018-05-23T00:07:09.819Z,41.60
2018-05-23T00:09:38.094Z,41.70
2018-05-23T00:12:06.389Z,42.00
2018-05-23T00:14:34.643Z,42.10
2018-05-23T00:17:02.225Z,42.10
2018-05-23T00:19:29.748Z,42.20
2018-05-23T00:21:57.376Z,42.30
2018-05-23T00:24:24.876Z,42.30
2018-05-23T00:26:52.363Z,42.60
2018-05-23T00:29:19.886Z,42.70
2018-05-23T00:31:47.491Z,42.70
2018-05-23T00:34:15.140Z,42.90
2018-05-23T00:36:43.391Z,43.10
2018-05-23T00:39:10.896Z,43.00
2018-05-23T00:41:39.154Z,43.40
2018-05-23T00:44:06.839Z,43.40
2018-05-23T00:46:34.441Z,43.40
2018-05-23T00:49:02.716Z,43.50
2018-05-23T00:51:30.998Z,43.90
2018-05-23T00:53:58.506Z,43.60
2018-05-23T00:56:26.001Z,43.70
2018-05-23T00:58:53.566Z,43.70
2018-05-23T01:01:21.102Z,43.70
2018-05-23T01:03:48.658Z,43.80
2018-05-23T01:06:16.303Z,44.00
2018-05-23T01:08:43.784Z,44.10
2018-05-23T01:11:11.367Z,44.10
2018-05-23T01:13:39.649Z,44.30
2018-05-23T01:16:07.313Z,44.30
2018-05-23T01:18:35.033Z,44.50
2018-05-23T01:21:02.521Z,44.50
2018-05-23T01:23:30.159Z,44.70
2018-05-23T01:25:58.401Z,44.90
2018-05-23T01:28:26.019Z,44.80
2018-05-23T01:30:54.266Z,45.00
2018-05-23T01:33:21.774Z,45.00
2018-05-23T01:35:50.214Z,45.40
2018-05-23T01:38:17.696Z,45.20
2018-05-23T01:40:45.305Z,45.20
2018-05-23T01:43:13.597Z,45.40
2018-05-23T01:45:41.874Z,45.40
2018-05-23T01:48:09.683Z,45.30
2018-05-23T01:50:37.199Z,46.00
2018-05-23T01:53:04.823Z,45.60
2018-05-23T01:55:32.377Z,45.60
2018-05-23T01:58:00.659Z,45.80
2018-05-23T02:00:29.043Z,45.90
2018-05-23T02:02:56.516Z,45.90
2018-05-23T02:05:24.020Z,46.00
2018-05-23T02:07:51.755Z,46.10
2018-05-23T02:10:20.888Z,46.20
2018-05-23T02:12:49.162Z,46.30
2018-05-23T02:15:16.800Z,46.20
2018-05-23T02:17:44.296Z,46.40
2018-05-23T02:20:11.818Z,46.50
2018-05-23T02:22:39.405Z,46.50
2018-05-23T02:25:06.884Z,46.60
2018-05-23T02:27:34.483Z,46.60
2018-05-23T02:30:02.065Z,46.60
2018-05-23T02:32:30.373Z,46.90
2018-05-23T02:34:57.881Z,46.80
2018-05-23T02:37:25.379Z,46.90
2018-05-23T02:39:53.018Z,47.00
2018-05-23T02:42:20.551Z,47.00
2018-05-23T02:44:48.928Z,47.40
2018-05-23T02:47:17.177Z,47.40
2018-05-23T02:49:44.814Z,47.40
2018-05-23T02:52:12.356Z,47.50
2018-05-23T02:54:39.929Z,47.50
2018-05-23T02:57:08.172Z,47.70
2018-05-23T02:59:35.773Z,47.70
2018-05-23T03:02:03.365Z,47.60
2018-05-23T03:04:31.652Z,47.80
2018-05-23T03:06:59.246Z,47.70
2018-05-23T03:09:26.869Z,47.80
2018-05-23T03:11:54.364Z,47.90
2018-05-23T03:14:21.877Z,48.00
2018-05-23T03:16:49.429Z,48.00
2018-05-23T03:19:16.980Z,48.10
2018-05-23T03:21:45.268Z,48.20
2018-05-23T03:24:13.612Z,48.70
2018-05-23T03:26:41.124Z,48.20
2018-05-23T03:29:09.393Z,48.50
2018-05-23T03:31:36.917Z,48.30
2018-05-23T03:34:04.438Z,48.40
2018-05-23T03:36:31.950Z,48.60
2018-05-23T03:38:59.525Z,48.60
2018-05-23T03:41:27.110Z,48.60
2018-05-23T03:43:54.971Z,48.70
2018-05-23T03:46:22.503Z,48.70
2018-05-23T03:48:50.090Z,48.80
2018-05-23T03:51:18.375Z,48.80
2018-05-23T03:53:45.880Z,48.80
2018-05-23T03:56:13.437Z,48.90
2018-05-23T03:58:40.927Z,48.90
2018-05-23T04:01:20.449Z,49.00
2018-05-23T04:04:00.293Z,49.10
2018-05-23T04:06:34.517Z,49.30
2018-05-23T04:09:02.797Z,49.20
2018-05-23T04:11:30.327Z,49.10
2018-05-23T04:13:57.838Z,49.20
2018-05-23T04:16:25.359Z,49.20
2018-05-23T04:18:52.899Z,49.10
2018-05-23T04:21:21.196Z,49.30
2018-05-23T04:23:49.588Z,49.30
2018-05-23T04:26:17.832Z,49.40
2018-05-23T04:28:45.439Z,49.40
2018-05-23T04:31:12.969Z,49.40
2018-05-23T04:33:40.492Z,49.50
2018-05-23T04:36:08.741Z,49.40
2018-05-23T04:38:36.405Z,49.40
2018-05-23T04:41:04.696Z,49.30
2018-05-23T04:43:32.272Z,49.30
2018-05-23T04:45:59.776Z,49.30
2018-05-23T04:48:28.116Z,49.10
2018-05-23T04:50:55.668Z,49.00
2018-05-23T04:53:23.384Z,46.50
2018-05-23T04:55:51.009Z,45.20
2018-05-23T04:58:18.488Z,44.40
2018-05-23T05:00:46.105Z,43.60
2018-05-23T05:03:13.638Z,43.10
2018-05-23T05:05:41.168Z,42.70
2018-05-23T05:08:09.424Z,42.20
2018-05-23T05:10:37.105Z,42.10
2018-05-23T05:13:04.612Z,42.00
2018-05-23T05:15:32.986Z,41.80
2018-05-23T05:18:01.237Z,41.80
2018-05-23T05:20:28.858Z,41.70
2018-05-23T05:22:57.113Z,41.40
2018-05-23T05:25:24.704Z,41.40
2018-05-23T05:27:52.500Z,40.90
2018-05-23T05:30:20.910Z,42.00
2018-05-23T05:32:48.477Z,41.90
2018-05-23T05:35:15.970Z,42.00
2018-05-23T05:37:43.594Z,42.20
2018-05-23T05:40:11.260Z,42.50
2018-05-23T05:42:38.780Z,42.40
2018-05-23T05:45:06.449Z,42.60
2018-05-23T05:47:34.012Z,42.70
2018-05-23T05:50:01.549Z,42.60
2018-05-23T05:52:29.044Z,42.70
2018-05-23T05:54:56.829Z,42.80
2018-05-23T05:57:24.319Z,42.80
2018-05-23T05:59:51.831Z,42.90
2018-05-23T06:02:19.320Z,43.10
2018-05-23T06:04:47.594Z,43.30
2018-05-23T06:07:16.122Z,45.30
2018-05-23T06:09:43.763Z,45.30
2018-05-23T06:12:11.252Z,44.30
2018-05-23T06:14:39.520Z,42.80
2018-05-23T06:17:07.073Z,42.70
2018-05-23T06:19:34.567Z,42.30
2018-05-23T06:22:02.851Z,42.10
2018-05-23T06:24:30.324Z,42.10
2018-05-23T06:26:58.617Z,41.80
2018-05-23T06:29:26.868Z,41.80
2018-05-23T06:31:54.398Z,41.80
2018-05-23T06:34:21.954Z,41.90
2018-05-23T06:36:50.258Z,41.80
2018-05-23T06:39:17.764Z,41.70
2018-05-23T06:41:45.272Z,41.50
2018-05-23T06:44:13.085Z,41.50
2018-05-23T06:46:40.640Z,41.40
2018-05-23T06:49:08.322Z,41.30
2018-05-23T06:51:35.937Z,41.20
2018-05-23T06:54:03.413Z,41.10
2018-05-23T06:56:30.928Z,41.20
2018-05-23T06:58:59.181Z,41.00
2018-05-23T07:01:26.885Z,41.00
2018-05-23T07:03:55.150Z,41.20
2018-05-23T07:06:22.724Z,41.10
2018-05-23T07:08:50.302Z,41.30
2018-05-23T07:11:18.003Z,41.40
2018-05-23T07:13:45.533Z,41.20
2018-05-23T07:16:13.041Z,41.30
2018-05-23T07:18:40.705Z,41.30
2018-05-23T07:21:08.992Z,41.30
2018-05-23T07:23:37.289Z,41.90
2018-05-23T07:26:04.834Z,41.30
2018-05-23T07:28:32.421Z,41.50
2018-05-23T07:31:00.725Z,41.60
2018-05-23T07:33:28.272Z,41.50
2018-05-23T07:35:56.604Z,41.10
2018-05-23T07:38:24.280Z,41.10
2018-05-23T07:40:52.509Z,41.10
2018-05-23T07:43:20.291Z,41.10
2018-05-23T07:45:47.918Z,40.90
2018-05-23T07:48:16.256Z,40.90
2018-05-23T07:50:43.761Z,40.80
2018-05-23T07:53:11.298Z,40.40
2018-05-23T07:55:39.589Z,41.00
2018-05-23T07:58:07.074Z,40.90
2018-05-23T08:00:35.449Z,40.70
2018-05-23T08:03:03.705Z,40.70
2018-05-23T08:05:31.219Z,40.60
2018-05-23T08:07:59.596Z,40.60
2018-05-23T08:10:27.140Z,40.50
2018-05-23T08:12:54.637Z,40.00
2018-05-23T08:15:22.246Z,40.30
2018-05-23T08:17:49.895Z,40.10
2018-05-23T08:20:18.152Z,39.80
2018-05-23T08:22:45.786Z,39.90
2018-05-23T08:25:13.361Z,39.80
2018-05-23T08:27:40.984Z,39.90
2018-05-23T08:30:08.581Z,40.10
2018-05-23T08:32:36.876Z,39.90
2018-05-23T08:35:04.366Z,39.90
2018-05-23T08:37:31.944Z,39.70
2018-05-23T08:39:59.439Z,39.60
2018-05-23T08:42:26.952Z,39.60
2018-05-23T08:44:55.205Z,39.10
2018-05-23T08:47:22.810Z,39.10
2018-05-23T08:49:51.892Z,39.50
2018-05-23T08:52:19.430Z,39.50
2018-05-23T08:54:47.160Z,39.60
2018-05-23T08:57:15.522Z,39.50
2018-05-23T08:59:43.243Z,40.10
2018-05-23T09:02:10.820Z,39.40
2018-05-23T09:04:38.338Z,39.50
2018-05-23T09:07:05.862Z,39.30
2018-05-23T09:09:33.437Z,39.10
2018-05-23T09:12:01.673Z,38.70
2018-05-23T09:14:29.273Z,38.60
2018-05-23T09:16:57.533Z,38.20
2018-05-23T09:19:25.098Z,38.10
2018-05-23T09:21:52.613Z,38.10
2018-05-23T09:24:20.166Z,38.10
2018-05-23T09:26:48.490Z,37.60
2018-05-23T09:29:16.025Z,38.10
2018-05-23T09:31:44.275Z,37.30
2018-05-23T09:34:11.918Z,37.20
2018-05-23T09:36:39.419Z,37.00
2018-05-23T09:39:07.020Z,36.80
2018-05-23T09:41:34.591Z,36.00
2018-05-23T09:44:02.184Z,35.40
2018-05-23T09:46:30.453Z,34.00
2018-05-23T09:48:58.029Z,34.00
2018-05-23T09:51:25.616Z,33.50
2018-05-23T09:53:54.054Z,34.30
2018-05-23T09:56:21.563Z,34.30
2018-05-23T09:58:49.847Z,32.40
2018-05-23T10:01:17.432Z,31.80
2018-05-23T10:03:45.724Z,32.50
2018-05-23T10:06:14.022Z,30.90
2018-05-23T10:08:42.307Z,30.80
2018-05-23T10:11:10.685Z,31.30
2018-05-23T10:13:38.404Z,31.20
2018-05-23T10:16:06.005Z,30.80
2018-05-23T10:18:33.528Z,31.20
2018-05-23T10:21:01.225Z,29.80
2018-05-23T10:23:28.735Z,30.30
2018-05-23T10:25:56.248Z,30.30
2018-05-23T10:28:23.776Z,29.80
2018-05-23T10:30:52.826Z,30.10
2018-05-23T10:33:20.356Z,30.00
2018-05-23T10:35:47.947Z,30.00
2018-05-23T10:38:16.259Z,29.90
2018-05-23T10:40:43.755Z,30.00
2018-05-23T10:43:11.305Z,29.60
2018-05-23T10:45:38.786Z,29.20
2018-05-23T10:48:06.291Z,28.30
2018-05-23T10:50:34.619Z,29.20
2018-05-23T10:53:02.167Z,29.20
2018-05-23T10:55:30.875Z,28.10
2018-05-23T10:57:59.195Z,28.60
2018-05-23T11:00:26.722Z,28.50
2018-05-23T11:02:54.219Z,28.20
2018-05-23T11:05:21.749Z,27.80
2018-05-23T11:07:49.265Z,27.20
2018-05-23T11:10:16.909Z,27.00
2018-05-23T11:12:45.176Z,27.00
2018-05-23T11:15:12.711Z,26.90
2018-05-23T11:17:40.274Z,26.50
2018-05-23T11:20:07.894Z,26.70
2018-05-23T11:22:35.368Z,26.30
2018-05-23T11:25:02.868Z,26.20
2018-05-23T11:27:31.261Z,25.90
2018-05-23T11:29:59.650Z,25.10
2018-05-23T11:32:27.909Z,26.00
2018-05-23T11:34:55.528Z,25.90
2018-05-23T11:37:23.086Z,25.50
2018-05-23T11:39:51.327Z,25.90
2018-05-23T11:42:18.891Z,25.90
2018-05-23T11:44:47.125Z,24.70
2018-05-23T11:47:15.402Z,24.30
2018-05-23T11:49:42.909Z,24.30
2018-05-23T11:52:10.472Z,24.20
2018-05-23T11:54:38.009Z,24.20
2018-05-23T11:57:05.554Z,24.10
2018-05-23T11:59:33.175Z,23.90
2018-05-23T12:02:01.484Z,23.70
2018-05-23T12:04:29.354Z,23.70
2018-05-23T12:06:57.813Z,23.50
2018-05-23T12:09:25.428Z,23.50
2018-05-23T12:11:53.666Z,23.50
2018-05-23T12:14:21.241Z,23.40
2018-05-23T12:16:48.843Z,23.20
2018-05-23T12:19:17.200Z,23.00
2018-05-23T12:21:44.876Z,23.00
2018-05-23T12:24:12.396Z,23.20
2018-05-23T12:26:40.054Z,23.10
2018-05-23T12:29:07.626Z,23.20
2018-05-23T12:31:35.147Z,23.30
2018-05-23T12:34:02.643Z,22.70
2018-05-23T12:36:30.229Z,22.50
2018-05-23T12:38:57.834Z,22.50
2018-05-23T12:41:25.561Z,22.60
2018-05-23T12:43:53.042Z,23.00
2018-05-23T12:46:21.290Z,22.50
2018-05-23T12:48:48.901Z,22.40
2018-05-23T12:51:17.162Z,22.40
2018-05-23T12:53:44.761Z,22.30
2018-05-23T12:56:13.058Z,21.90
2018-05-23T12:58:41.333Z,21.90
2018-05-23T13:01:09.850Z,22.00
2018-05-23T13:03:38.256Z,22.00
2018-05-23T13:06:05.813Z,21.90
2018-05-23T13:08:33.346Z,21.70
2018-05-23T13:11:00.947Z,21.80
2018-05-23T13:13:29.210Z,22.20
2018-05-23T13:15:56.774Z,22.20
2018-05-23T13:18:24.312Z,21.50
2018-05-23T13:20:51.874Z,21.70
2018-05-23T13:23:19.416Z,22.50
2018-05-23T13:25:47.856Z,22.60
2018-05-23T13:28:15.352Z,22.50
2018-05-23T13:30:42.948Z,22.30
2018-05-23T13:33:11.260Z,22.20
2018-05-23T13:35:40.201Z,22.20
2018-05-23T13:38:08.514Z,21.90
2018-05-23T13:40:36.122Z,22.00
2018-05-23T13:43:03.663Z,22.30
2018-05-23T13:45:31.922Z,22.50
2018-05-23T13:47:59.457Z,22.60
2018-05-23T13:50:26.997Z,22.10
2018-05-23T13:52:55.355Z,22.90
2018-05-23T13:55:22.987Z,22.80
2018-05-23T13:57:50.494Z,22.80
2018-05-23T14:00:17.979Z,23.10
2018-05-23T14:02:45.530Z,22.20
2018-05-23T14:05:13.015Z,22.30
2018-05-23T14:07:40.531Z,23.00
2018-05-23T14:10:08.094Z,22.60
2018-05-23T14:12:36.374Z,22.80
2018-05-23T14:15:04.669Z,22.60
2018-05-23T14:17:33.056Z,22.50
2018-05-23T14:20:01.303Z,22.60
2018-05-23T14:22:28.814Z,22.60
2018-05-23T14:24:56.336Z,22.90
2018-05-23T14:27:23.831Z,22.80
2018-05-23T14:29:51.509Z,22.60
2018-05-23T14:32:19.142Z,23.00
2018-05-23T14:34:46.736Z,22.90
2018-05-23T14:37:14.270Z,22.80
2018-05-23T14:39:41.790Z,22.90
2018-05-23T14:42:09.401Z,23.30
2018-05-23T14:44:37.660Z,23.30
2018-05-23T14:47:05.305Z,23.30
2018-05-23T14:49:32.829Z,23.20
2018-05-23T14:52:01.088Z,23.80
2018-05-23T14:54:28.707Z,23.80
2018-05-23T14:56:56.206Z,24.00
2018-05-23T14:59:23.921Z,24.00
2018-05-23T15:01:52.938Z,24.00
2018-05-23T15:04:21.281Z,24.00
2018-05-23T15:06:48.941Z,23.90
2018-05-23T15:09:16.550Z,24.40
2018-05-23T15:11:44.100Z,24.20
2018-05-23T15:14:11.736Z,23.70
2018-05-23T15:16:39.188Z,24.50
2018-05-23T15:19:07.453Z,24.50
2018-05-23T15:21:35.269Z,24.50
2018-05-23T15:24:02.779Z,24.50
2018-05-23T15:26:30.300Z,24.80
2018-05-23T15:28:58.578Z,24.90
2018-05-23T15:31:26.921Z,24.20
2018-05-23T15:33:54.456Z,24.20
2018-05-23T15:36:22.201Z,24.10
2018-05-23T15:38:49.714Z,24.10
2018-05-23T15:41:17.245Z,24.70
2018-05-23T15:43:44.783Z,24.70
2018-05-23T15:46:13.219Z,24.50
2018-05-23T15:48:41.530Z,24.80
2018-05-23T15:51:09.081Z,24.80
2018-05-23T15:53:37.379Z,24.60
2018-05-23T15:56:04.950Z,24.60
2018-05-23T15:58:33.217Z,24.80
2018-05-23T16:01:00.793Z,24.80
2018-05-23T16:03:29.091Z,25.00
2018-05-23T16:05:57.401Z,25.40
2018-05-23T16:08:24.961Z,25.30
2018-05-23T16:10:53.320Z,25.20
2018-05-23T16:13:20.923Z,25.10
2018-05-23T16:15:49.323Z,25.10
2018-05-23T16:18:17.026Z,25.10
2018-05-23T16:20:44.906Z,25.30
2018-05-23T16:23:12.694Z,25.20
2018-05-23T16:25:40.313Z,25.20
2018-05-23T16:28:08.553Z,25.00
2018-05-23T16:30:36.072Z,25.00
2018-05-23T16:33:04.406Z,25.60
2018-05-23T16:35:32.047Z,25.60
2018-05-23T16:37:59.596Z,26.00
2018-05-23T16:40:27.914Z,25.90
2018-05-23T16:42:55.445Z,25.90
2018-05-23T16:45:22.932Z,25.70
2018-05-23T16:47:51.236Z,25.90
2018-05-23T16:50:18.712Z,25.90
2018-05-23T16:52:46.238Z,25.90
2018-05-23T16:55:14.003Z,25.90
2018-05-23T16:57:41.731Z,25.80
2018-05-23T17:00:09.401Z,25.60
2018-05-23T17:02:37.105Z,25.90
2018-05-23T17:05:04.706Z,25.80
2018-05-23T17:20:42.353Z,26.20
2018-05-23T17:23:09.901Z,26.30
2018-05-23T17:25:37.525Z,26.20
2018-05-23T17:28:05.091Z,26.40
2018-05-23T17:30:32.812Z,26.30
2018-05-23T17:33:00.314Z,26.60
2018-05-23T17:35:27.930Z,26.20
2018-05-23T17:37:55.529Z,26.30
2018-05-23T17:40:23.091Z,26.30
2018-05-23T17:42:50.665Z,26.30
2018-05-23T17:45:18.335Z,26.30
2018-05-23T17:47:45.838Z,26.90
2018-05-23T17:50:13.483Z,26.50
2018-05-23T17:52:40.997Z,26.80
2018-05-23T17:55:08.572Z,26.40
2018-05-23T17:57:36.102Z,26.50
2018-05-23T18:00:03.926Z,26.50
2018-05-23T18:02:31.467Z,26.70
2018-05-23T18:04:58.990Z,26.90
2018-05-23T18:07:27.418Z,26.90
2018-05-23T18:09:54.906Z,26.90
2018-05-23T18:12:22.524Z,26.90
2018-05-23T18:14:50.947Z,27.10
2018-05-23T18:17:18.458Z,27.40
2018-05-23T18:19:45.990Z,27.10
2018-05-23T18:22:13.562Z,27.10
2018-05-23T18:24:41.215Z,27.20
2018-05-23T18:27:09.463Z,27.20
2018-05-23T18:29:37.190Z,27.20
2018-05-23T18:32:06.472Z,27.30
2018-05-23T18:34:34.073Z,27.20
2018-05-23T18:37:01.560Z,27.50
2018-05-23T18:39:29.187Z,27.50
2018-05-23T18:41:56.917Z,27.50
2018-05-23T18:44:24.413Z,28.00
2018-05-23T18:46:53.471Z,32.30
2018-05-23T18:49:20.983Z,32.30
2018-05-23T18:51:48.585Z,31.30
2018-05-23T18:54:16.869Z,30.00
2018-05-23T18:56:44.498Z,30.50
2018-05-23T18:59:12.061Z,29.90
2018-05-23T19:01:39.698Z,30.30
2018-05-23T19:04:07.245Z,30.00
2018-05-23T19:06:34.787Z,29.50
2018-05-23T19:09:02.427Z,29.70
2018-05-23T19:11:30.041Z,29.80
2018-05-23T19:13:58.531Z,30.50
2018-05-23T19:16:26.047Z,30.10
2018-05-23T19:18:54.510Z,29.80
2018-05-23T19:21:22.590Z,29.80
2018-05-23T19:23:50.292Z,29.90
2018-05-23T19:26:18.653Z,30.30
2018-05-23T19:28:46.166Z,30.30
2018-05-23T19:31:14.636Z,30.70
2018-05-23T19:33:42.168Z,30.60
2018-05-23T19:36:09.690Z,31.20
2018-05-23T19:38:37.979Z,31.80
2018-05-23T19:41:06.289Z,32.10
2018-05-23T19:43:34.309Z,32.00
2018-05-23T19:46:01.849Z,32.50
2018-05-23T19:48:29.390Z,32.60
2018-05-23T19:50:57.002Z,33.10
2018-05-23T19:53:24.563Z,33.30
2018-05-23T19:55:52.133Z,33.60
2018-05-23T19:58:19.742Z,34.00
2018-05-23T20:00:47.397Z,34.10
2018-05-23T20:03:15.136Z,34.50
2018-05-23T20:05:43.819Z,34.80
2018-05-23T20:08:11.496Z,34.80
2018-05-23T20:10:39.754Z,35.10
2018-05-23T20:13:07.274Z,35.10
2018-05-23T20:15:34.852Z,35.30
2018-05-23T20:18:02.354Z,35.30
2018-05-23T20:20:29.902Z,35.40
2018-05-23T20:22:57.424Z,35.50
2018-05-23T20:25:24.968Z,35.90
2018-05-23T20:27:52.493Z,36.10
2018-05-23T20:30:20.893Z,36.40
2018-05-23T20:32:48.466Z,36.40
2018-05-23T20:35:16.061Z,36.50
2018-05-23T20:37:43.607Z,36.50
2018-05-23T20:40:11.389Z,36.60
2018-05-23T20:42:38.939Z,36.70
2018-05-23T20:45:07.278Z,36.60
2018-05-23T20:47:34.940Z,36.60
2018-05-23T20:50:02.435Z,36.80
2018-05-23T20:52:29.929Z,37.10
2018-05-23T20:54:57.456Z,37.20
2018-05-23T20:57:25.112Z,37.20
2018-05-23T20:59:52.633Z,37.20
2018-05-23T21:02:20.257Z,37.10
2018-05-23T21:04:47.846Z,37.30
2018-05-23T21:07:15.378Z,37.40
2018-05-23T21:09:42.915Z,37.50
2018-05-23T21:12:10.586Z,37.70
2018-05-23T21:14:38.100Z,37.70
2018-05-23T21:17:06.374Z,37.90
2018-05-23T21:19:33.935Z,37.90
2018-05-23T21:22:01.438Z,38.10
2018-05-23T21:24:29.008Z,38.20
2018-05-23T21:26:56.529Z,38.60
2018-05-23T21:29:24.014Z,38.70
2018-05-23T21:31:51.560Z,38.70
2018-05-23T21:34:19.050Z,39.00
2018-05-23T21:36:47.513Z,39.40
2018-05-23T21:39:15.015Z,39.60
2018-05-23T21:41:42.533Z,39.80
2018-05-23T21:44:11.153Z,40.10
2018-05-23T21:46:38.655Z,40.40
2018-05-23T21:49:06.207Z,40.60
2018-05-23T21:51:33.905Z,40.70
2018-05-23T21:54:01.419Z,40.80
2018-05-23T21:56:28.901Z,40.80
2018-05-23T21:58:56.439Z,41.20
2018-05-23T22:01:25.571Z,40.90
2018-05-23T22:03:53.175Z,41.30
2018-05-23T22:06:20.651Z,41.50
2018-05-23T22:08:48.251Z,41.40
2018-05-23T22:11:16.524Z,41.70
2018-05-23T22:13:44.780Z,41.70
2018-05-23T22:16:12.342Z,41.70
2018-05-23T22:18:39.875Z,41.80
2018-05-23T22:21:08.277Z,41.90
2018-05-23T22:23:35.784Z,41.90
2018-05-23T22:26:03.503Z,42.00
2018-05-23T22:28:31.821Z,42.40
2018-05-23T22:30:59.330Z,42.10
2018-05-23T22:33:26.819Z,42.20
2018-05-23T22:35:54.427Z,42.30
2018-05-23T22:38:22.743Z,42.40
2018-05-23T22:40:50.300Z,42.40
2018-05-23T22:43:17.848Z,42.40
2018-05-23T22:45:46.126Z,42.50
2018-05-23T22:48:14.417Z,42.70
2018-05-23T22:50:42.685Z,42.70
2018-05-23T22:53:10.234Z,42.60
2018-05-23T22:55:37.763Z,42.60
2018-05-23T22:58:05.396Z,42.70
2018-05-23T23:00:32.989Z,42.70
2018-05-23T23:03:01.479Z,42.90
2018-05-23T23:05:28.957Z,42.80
2018-05-23T23:07:57.247Z,43.00
2018-05-23T23:10:25.551Z,43.10
2018-05-23T23:12:53.066Z,43.00
2018-05-23T23:15:20.596Z,43.00
2018-05-23T23:17:48.164Z,43.20
2018-05-23T23:20:16.289Z,43.30
2018-05-23T23:22:43.801Z,43.30
2018-05-23T23:25:12.114Z,43.20
2018-05-23T23:27:39.608Z,43.20
2018-05-23T23:30:07.320Z,43.20
2018-05-23T23:32:34.800Z,43.10
2018-05-23T23:35:03.048Z,43.20
2018-05-23T23:37:30.555Z,43.10
2018-05-23T23:39:58.119Z,43.10
2018-05-23T23:42:25.683Z,43.10
2018-05-23T23:44:54.806Z,43.20
2018-05-23T23:47:22.497Z,43.10
2018-05-23T23:49:50.822Z,43.20
2018-05-23T23:52:18.532Z,43.80
2018-05-23T23:54:46.084Z,43.20
2018-05-23T23:57:13.653Z,43.30
2018-05-23T23:59:41.390Z,43.40
